createdAt,value
2023-05-04T00:00:10.650Z,26.13
2023-05-04T00:02:39.352Z,27.97
2023-05-04T00:05:09.032Z,25.07
2023-05-04T00:07:37.673Z,27.00
2023-05-04T00:10:08.944Z,29.47
2023-05-04T00:12:38.302Z,29.23
2023-05-04T00:15:07.993Z,26.27
2023-05-04T00:17:36.694Z,27.40
2023-05-04T00:20:05.971Z,31.60
2023-05-04T00:22:34.750Z,30.00
2023-05-04T00:25:03.326Z,26.97
2023-05-04T00:27:33.466Z,29.93
2023-05-04T00:30:02.284Z,29.13
2023-05-04T00:32:31.121Z,28.97
2023-05-04T00:35:00.890Z,26.33
2023-05-04T00:37:29.487Z,25.50
2023-05-04T00:39:58.055Z,26.07
2023-05-04T00:42:26.946Z,25.67
2023-05-04T00:44:57.137Z,26.90
2023-05-04T00:47:26.344Z,23.53
2023-05-04T00:49:55.102Z,26.87
2023-05-04T00:52:25.237Z,25.40
2023-05-04T00:54:54.377Z,26.77
2023-05-04T00:57:23.063Z,28.17
2023-05-04T00:59:51.630Z,31.93
2023-05-04T01:02:21.880Z,30.57
2023-05-04T01:04:50.681Z,31.13
2023-05-04T01:07:28.355Z,25.07
2023-05-04T01:10:04.268Z,26.77
2023-05-04T01:12:39.311Z,26.40
2023-05-04T01:15:10.164Z,27.30
2023-05-04T01:17:40.524Z,25.57
2023-05-04T01:20:10.851Z,42.97
2023-05-04T01:22:41.237Z,39.40
2023-05-04T01:25:10.831Z,42.40
2023-05-04T01:27:48.521Z,34.47
2023-05-04T01:30:25.300Z,33.93
2023-05-04T01:32:54.800Z,57.50
2023-05-04T01:35:23.745Z,37.40
2023-05-04T01:37:53.800Z,43.70
2023-05-04T01:40:22.512Z,37.63
2023-05-04T01:42:51.176Z,41.63
2023-05-04T01:45:19.924Z,65.60
2023-05-04T01:47:49.244Z,55.20
2023-05-04T01:50:17.845Z,55.57
2023-05-04T01:52:46.510Z,39.80
2023-05-04T01:55:16.583Z,43.00
2023-05-04T01:57:45.462Z,24.57
2023-05-04T02:00:16.453Z,29.27
2023-05-04T02:02:49.311Z,24.60
2023-05-04T02:05:18.108Z,25.97
2023-05-04T02:07:46.727Z,35.17
2023-05-04T02:10:17.592Z,42.10
2023-05-04T02:12:46.551Z,50.53
2023-05-04T02:15:15.463Z,36.57
2023-05-04T02:17:44.100Z,54.10
2023-05-04T02:20:13.533Z,53.03
2023-05-04T02:22:42.498Z,31.43
2023-05-04T02:25:11.401Z,69.10
2023-05-04T02:27:41.444Z,66.40
2023-05-04T02:30:11.088Z,59.10
2023-05-04T02:32:40.235Z,88.00
2023-05-04T02:35:09.397Z,69.60
2023-05-04T02:37:38.086Z,62.87
2023-05-04T02:40:07.911Z,52.13
2023-05-04T02:42:36.604Z,49.57
2023-05-04T02:45:08.742Z,60.87
2023-05-04T02:47:37.295Z,74.17
2023-05-04T02:50:07.071Z,60.97
2023-05-04T02:52:36.067Z,52.93
2023-05-04T02:55:05.232Z,43.23
2023-05-04T02:57:33.870Z,42.70
2023-05-04T03:00:02.636Z,50.57
2023-05-04T03:02:32.829Z,39.20
2023-05-04T03:05:01.503Z,42.07
2023-05-04T03:07:30.237Z,39.20
2023-05-04T03:09:58.914Z,39.80
2023-05-04T03:12:27.618Z,36.77
2023-05-04T03:14:56.308Z,31.20
2023-05-04T03:17:25.001Z,38.40
2023-05-04T03:19:55.016Z,68.90
2023-05-04T03:22:23.615Z,75.17
2023-05-04T03:24:53.138Z,84.23
2023-05-04T03:27:21.770Z,85.23
2023-05-04T03:29:50.426Z,61.67
2023-05-04T03:32:19.055Z,36.67
2023-05-04T03:34:47.716Z,34.87
2023-05-04T03:37:17.761Z,34.07
2023-05-04T03:39:46.328Z,50.33
2023-05-04T03:42:15.009Z,45.53
2023-05-04T03:44:43.592Z,44.60
2023-05-04T03:47:12.259Z,35.83
2023-05-04T03:49:41.000Z,38.40
2023-05-04T03:52:09.616Z,43.60
2023-05-04T03:54:39.636Z,40.30
2023-05-04T03:57:08.382Z,31.67
2023-05-04T03:59:36.935Z,57.07
2023-05-04T04:02:05.651Z,106.17
2023-05-04T04:04:34.290Z,113.23
2023-05-04T04:07:03.067Z,120.57
2023-05-04T04:09:31.753Z,167.27
2023-05-04T04:12:02.403Z,167.23
2023-05-04T04:14:31.270Z,161.03
2023-05-04T04:16:59.865Z,100.10
2023-05-04T04:19:28.584Z,41.97
2023-05-04T04:22:00.184Z,37.37
2023-05-04T04:24:28.906Z,23.30
2023-05-04T04:26:57.794Z,19.77
2023-05-04T04:29:27.828Z,20.50
2023-05-04T04:31:56.958Z,26.87
2023-05-04T04:34:25.672Z,18.98
2023-05-04T04:36:54.514Z,20.97
2023-05-04T04:39:23.832Z,17.13
2023-05-04T04:42:08.121Z,20.97
2023-05-04T04:44:47.085Z,14.98
2023-05-04T04:47:16.871Z,14.13
2023-05-04T04:49:45.667Z,14.40
2023-05-04T04:52:14.234Z,14.47
2023-05-04T04:54:42.873Z,13.23
2023-05-04T04:57:11.520Z,14.53
2023-05-04T04:59:40.100Z,14.47
2023-05-04T05:02:10.310Z,15.65
2023-05-04T05:04:40.557Z,16.07
2023-05-04T05:07:10.671Z,14.33
2023-05-04T05:09:39.539Z,16.13
2023-05-04T05:12:08.194Z,13.87
2023-05-04T05:14:36.827Z,11.43
2023-05-04T05:17:05.802Z,12.50
2023-05-04T05:19:37.493Z,11.87
2023-05-04T05:22:06.317Z,10.53
2023-05-04T05:24:34.953Z,10.63
2023-05-04T05:27:03.985Z,10.77
2023-05-04T05:29:33.081Z,10.15
2023-05-04T05:32:01.929Z,10.70
2023-05-04T05:34:30.567Z,12.20
2023-05-04T05:37:00.692Z,10.40
2023-05-04T05:39:29.515Z,13.23
2023-05-04T05:41:58.973Z,10.83
2023-05-04T05:44:27.549Z,8.43
2023-05-04T05:46:57.272Z,8.67
2023-05-04T05:49:25.862Z,8.47
2023-05-04T05:51:54.697Z,7.73
2023-05-04T05:54:24.941Z,7.47
2023-05-04T05:56:53.709Z,5.37
2023-05-04T05:59:22.383Z,9.37
2023-05-04T06:01:51.478Z,5.63
2023-05-04T06:04:20.230Z,6.07
2023-05-04T06:06:48.868Z,5.43
2023-05-04T06:09:17.612Z,6.00
2023-05-04T06:11:47.813Z,5.17
2023-05-04T06:14:16.961Z,4.47
2023-05-04T06:16:46.494Z,4.40
2023-05-04T06:19:15.550Z,5.07
2023-05-04T06:21:44.192Z,3.67
2023-05-04T06:24:13.420Z,3.60
2023-05-04T06:26:41.951Z,3.50
2023-05-04T06:29:12.238Z,4.20
2023-05-04T06:31:40.911Z,3.27
2023-05-04T06:34:09.563Z,3.43
2023-05-04T06:36:38.256Z,3.37
2023-05-04T06:39:06.848Z,4.00
2023-05-04T06:41:35.707Z,3.40
2023-05-04T06:44:05.052Z,4.00
2023-05-04T06:46:37.307Z,3.50
2023-05-04T06:49:06.158Z,3.53
2023-05-04T06:51:37.776Z,4.20
2023-05-04T06:54:06.608Z,3.00
2023-05-04T06:56:35.393Z,3.47
2023-05-04T06:59:04.147Z,3.43
2023-05-04T07:01:32.800Z,3.37
2023-05-04T07:04:02.940Z,3.53
2023-05-04T07:06:32.479Z,4.75
2023-05-04T07:09:01.438Z,3.10
2023-05-04T07:11:31.133Z,3.10
2023-05-04T07:14:00.887Z,2.40
2023-05-04T07:16:29.817Z,2.60
2023-05-04T07:18:58.621Z,2.40
2023-05-04T07:21:29.234Z,2.00
2023-05-04T07:23:58.444Z,3.13
2023-05-04T07:26:27.217Z,2.53
2023-05-04T07:28:55.915Z,2.10
2023-05-04T07:31:24.641Z,2.37
2023-05-04T07:33:53.289Z,2.22
2023-05-04T07:36:22.651Z,2.30
2023-05-04T07:38:52.718Z,1.92
2023-05-04T07:41:21.419Z,3.25
2023-05-04T07:43:50.082Z,2.40
2023-05-04T07:46:18.757Z,3.00
2023-05-04T07:48:47.374Z,4.30
2023-05-04T07:51:16.551Z,2.13
2023-05-04T07:53:45.183Z,1.90
2023-05-04T07:56:15.512Z,2.17
2023-05-04T07:58:44.217Z,5.40
2023-05-04T08:01:12.859Z,2.30
2023-05-04T08:03:42.183Z,2.65
2023-05-04T08:06:10.994Z,2.22
2023-05-04T08:08:39.662Z,2.17
2023-05-04T08:11:19.194Z,2.47
2023-05-04T08:13:51.986Z,2.50
2023-05-04T08:16:21.240Z,1.98
2023-05-04T08:18:49.993Z,2.90
2023-05-04T08:21:18.852Z,3.17
2023-05-04T08:23:53.322Z,1.83
2023-05-04T08:26:22.202Z,2.05
2023-05-04T08:28:53.062Z,2.08
2023-05-04T08:31:22.314Z,3.17
2023-05-04T08:33:51.010Z,2.33
2023-05-04T08:36:19.771Z,2.25
2023-05-04T08:38:49.228Z,2.47
2023-05-04T08:41:18.025Z,1.77
2023-05-04T08:43:49.645Z,2.13
2023-05-04T08:46:19.869Z,3.65
2023-05-04T08:48:48.458Z,2.58
2023-05-04T08:51:17.301Z,1.90
2023-05-04T08:53:47.447Z,3.70
2023-05-04T08:56:17.309Z,2.53
2023-05-04T08:58:51.254Z,3.22
2023-05-04T09:01:22.891Z,1.90
2023-05-04T09:03:52.756Z,2.15
2023-05-04T09:06:21.912Z,3.28
2023-05-04T09:08:50.613Z,1.83
2023-05-04T09:11:19.198Z,3.45
2023-05-04T09:13:47.996Z,3.03
2023-05-04T09:16:16.816Z,2.72
2023-05-04T09:18:47.117Z,2.30
2023-05-04T09:21:17.111Z,3.22
2023-05-04T09:23:49.834Z,5.72
2023-05-04T09:26:28.618Z,3.15
2023-05-04T09:28:57.438Z,3.15
2023-05-04T09:31:26.873Z,2.17
2023-05-04T09:33:56.912Z,2.90
2023-05-04T09:36:25.571Z,6.72
2023-05-04T09:38:54.233Z,2.03
2023-05-04T09:41:34.582Z,5.07
2023-05-04T09:44:03.643Z,1.98
2023-05-04T09:46:33.322Z,2.08
2023-05-04T09:49:04.787Z,1.85
2023-05-04T09:51:33.696Z,3.40
2023-05-04T09:54:03.867Z,3.63
2023-05-04T09:56:39.499Z,2.13
2023-05-04T09:59:08.440Z,8.95
2023-05-04T10:01:37.643Z,4.40
2023-05-04T10:04:08.255Z,2.35
2023-05-04T10:06:37.054Z,2.33
2023-05-04T10:09:05.946Z,6.93
2023-05-04T10:11:34.680Z,3.70
2023-05-04T10:14:03.433Z,2.53
2023-05-04T10:16:41.430Z,3.53
2023-05-04T10:19:24.096Z,2.60
2023-05-04T10:22:04.910Z,3.47
2023-05-04T10:24:53.698Z,2.00
2023-05-04T10:27:48.366Z,2.00
2023-05-04T10:30:18.719Z,2.97
2023-05-04T10:32:47.547Z,2.03
2023-05-04T10:35:20.029Z,2.25
2023-05-04T10:37:54.758Z,2.70
2023-05-04T10:40:36.301Z,3.53
2023-05-04T10:43:05.448Z,1.98
2023-05-04T10:45:37.991Z,2.00
2023-05-04T10:48:08.171Z,3.17
2023-05-04T10:50:48.500Z,3.33
2023-05-04T10:53:18.525Z,2.20
2023-05-04T10:55:48.871Z,2.10
2023-05-04T10:58:20.438Z,2.30
2023-05-04T11:00:51.909Z,3.03
2023-05-04T11:03:22.574Z,2.28
2023-05-04T11:05:55.072Z,2.05
2023-05-04T11:08:25.464Z,2.00
2023-05-04T11:11:03.392Z,1.98
2023-05-04T11:13:34.671Z,2.53
2023-05-04T11:16:03.402Z,2.22
2023-05-04T11:18:34.556Z,3.45
2023-05-04T11:21:04.902Z,2.42
2023-05-04T11:23:33.850Z,1.80
2023-05-04T11:26:09.177Z,2.50
2023-05-04T11:28:38.823Z,2.10
2023-05-04T11:31:15.114Z,2.17
2023-05-04T11:33:48.363Z,3.22
2023-05-04T11:36:18.894Z,2.47
2023-05-04T11:38:48.074Z,2.22
2023-05-04T11:41:16.946Z,2.15
2023-05-04T11:43:47.236Z,2.33
2023-05-04T11:46:16.752Z,3.00
2023-05-04T11:48:45.725Z,1.98
2023-05-04T11:51:14.887Z,4.22
2023-05-04T11:53:45.030Z,2.15
2023-05-04T11:56:13.731Z,3.58
2023-05-04T11:58:42.345Z,3.55
2023-05-04T12:01:10.943Z,4.80
2023-05-04T12:03:52.952Z,2.00
2023-05-04T12:06:32.913Z,3.10
2023-05-04T12:09:07.354Z,2.58
2023-05-04T12:11:38.527Z,2.10
2023-05-04T12:14:09.879Z,5.43
2023-05-04T12:16:39.088Z,8.13
2023-05-04T12:19:11.512Z,6.53
2023-05-04T12:21:51.878Z,2.13
2023-05-04T12:24:23.934Z,5.75
2023-05-04T12:26:53.074Z,2.10
2023-05-04T12:29:21.754Z,2.17
2023-05-04T12:31:50.426Z,2.97
2023-05-04T12:34:19.052Z,3.58
2023-05-04T12:36:47.610Z,3.13
2023-05-04T12:39:16.641Z,3.53
2023-05-04T12:41:46.635Z,3.22
2023-05-04T12:44:15.284Z,2.50
2023-05-04T12:46:43.991Z,3.03
2023-05-04T12:49:12.619Z,2.78
2023-05-04T12:51:41.310Z,4.03
2023-05-04T12:54:10.014Z,2.80
2023-05-04T12:56:40.020Z,4.97
2023-05-04T12:59:10.098Z,4.70
2023-05-04T13:01:38.730Z,5.82
2023-05-04T13:04:07.500Z,3.33
2023-05-04T13:06:36.051Z,3.47
2023-05-04T13:09:06.157Z,2.67
2023-05-04T13:11:35.251Z,3.00
2023-05-04T13:14:03.914Z,2.25
2023-05-04T13:16:48.922Z,2.50
2023-05-04T13:19:18.793Z,2.55
2023-05-04T13:21:48.015Z,4.05
2023-05-04T13:24:16.657Z,5.68
2023-05-04T13:26:45.324Z,2.67
2023-05-04T13:29:14.030Z,3.40
2023-05-04T13:31:45.203Z,2.45
2023-05-04T13:34:13.980Z,5.30
2023-05-04T13:36:42.961Z,2.58
2023-05-04T13:39:12.034Z,3.72
2023-05-04T13:41:41.006Z,3.38
2023-05-04T13:44:09.521Z,5.85
2023-05-04T13:46:38.218Z,3.20
2023-05-04T13:49:08.448Z,5.28
2023-05-04T13:51:38.636Z,3.67
2023-05-04T13:54:07.541Z,5.88
2023-05-04T13:56:36.287Z,2.40
2023-05-04T13:59:04.868Z,6.07
2023-05-04T14:01:33.498Z,5.60
2023-05-04T14:04:02.220Z,3.63
2023-05-04T14:06:33.130Z,2.65
2023-05-04T14:09:01.982Z,1.90
2023-05-04T14:11:30.762Z,2.85
2023-05-04T14:13:59.401Z,3.45
2023-05-04T14:16:29.302Z,2.92
2023-05-04T14:18:58.106Z,2.15
2023-05-04T14:21:26.814Z,2.53
2023-05-04T14:23:56.864Z,4.10
2023-05-04T14:26:25.457Z,7.05
2023-05-04T14:28:54.076Z,2.20
2023-05-04T14:31:22.827Z,2.90
2023-05-04T14:33:51.613Z,5.00
2023-05-04T14:36:20.267Z,6.03
2023-05-04T14:38:49.569Z,3.53
2023-05-04T14:41:19.702Z,3.83
2023-05-04T14:43:49.215Z,3.05
2023-05-04T14:46:17.819Z,4.10
2023-05-04T14:48:46.582Z,2.25
2023-05-04T14:51:15.301Z,3.45
2023-05-04T14:53:46.709Z,2.47
2023-05-04T14:56:15.376Z,5.68
2023-05-04T14:58:45.717Z,4.53
2023-05-04T15:01:14.436Z,2.58
2023-05-04T15:03:43.286Z,3.83
2023-05-04T15:06:12.576Z,2.83
2023-05-04T15:08:41.202Z,2.05
2023-05-04T15:11:09.827Z,1.77
2023-05-04T15:13:38.369Z,3.08
2023-05-04T15:16:08.870Z,3.42
2023-05-04T15:18:37.468Z,2.63
2023-05-04T15:21:06.297Z,4.30
2023-05-04T15:23:35.214Z,4.10
2023-05-04T15:26:04.528Z,1.90
2023-05-04T15:28:33.128Z,2.55
2023-05-04T15:31:03.588Z,1.80
2023-05-04T15:33:34.580Z,2.45
2023-05-04T15:36:08.450Z,4.95
2023-05-04T15:38:37.334Z,10.05
2023-05-04T15:41:06.998Z,1.90
2023-05-04T15:43:35.775Z,3.42
2023-05-04T15:46:04.473Z,4.50
2023-05-04T15:48:34.486Z,3.10
2023-05-04T15:51:03.390Z,4.38
2023-05-04T15:53:32.014Z,1.50
2023-05-04T15:56:00.924Z,2.70
2023-05-04T15:58:29.745Z,4.65
2023-05-04T16:01:00.013Z,2.53
2023-05-04T16:03:29.013Z,2.13
2023-05-04T16:05:59.007Z,8.65
2023-05-04T16:08:27.630Z,6.80
2023-05-04T16:10:58.149Z,7.03
2023-05-04T16:13:26.733Z,2.05
2023-05-04T16:15:55.466Z,2.03
2023-05-04T16:18:23.998Z,3.08
2023-05-04T16:20:54.800Z,3.17
2023-05-04T16:23:24.780Z,2.22
2023-05-04T16:25:53.510Z,2.72
2023-05-04T16:28:22.101Z,4.38
2023-05-04T16:30:50.922Z,2.25
2023-05-04T16:33:20.137Z,1.60
2023-05-04T16:35:48.752Z,3.25
2023-05-04T16:38:19.673Z,3.55
2023-05-04T16:40:49.731Z,3.03
2023-05-04T16:43:18.521Z,2.20
2023-05-04T16:45:47.504Z,2.58
2023-05-04T16:48:16.093Z,4.28
2023-05-04T16:50:44.672Z,3.15
2023-05-04T16:53:13.196Z,4.70
2023-05-04T16:55:42.350Z,1.60
2023-05-04T16:58:12.392Z,3.15
2023-05-04T17:00:43.103Z,6.47
2023-05-04T17:03:12.265Z,4.00
2023-05-04T17:05:41.199Z,2.42
2023-05-04T17:08:11.698Z,1.75
2023-05-04T17:10:40.327Z,2.95
2023-05-04T17:13:08.984Z,5.15
2023-05-04T17:15:39.423Z,2.25
2023-05-04T17:18:08.257Z,1.95
2023-05-04T17:20:38.372Z,2.38
2023-05-04T17:23:07.008Z,2.85
2023-05-04T17:25:36.023Z,1.52
2023-05-04T17:28:04.666Z,2.08
2023-05-04T17:30:35.874Z,8.85
2023-05-04T17:33:07.653Z,2.08
2023-05-04T17:35:36.416Z,2.15
2023-05-04T17:38:04.970Z,2.35
2023-05-04T17:40:33.664Z,2.10
2023-05-04T17:43:02.376Z,2.63
2023-05-04T17:45:30.966Z,2.47
2023-05-04T17:47:59.683Z,3.55
2023-05-04T17:50:30.480Z,3.80
2023-05-04T17:53:00.215Z,7.30
2023-05-04T17:55:28.980Z,5.68
2023-05-04T17:57:57.496Z,3.33
2023-05-04T18:00:26.214Z,7.13
2023-05-04T18:02:55.128Z,5.35
2023-05-04T18:05:25.299Z,4.43
2023-05-04T18:07:55.314Z,8.43
2023-05-04T18:10:24.346Z,4.28
2023-05-04T18:12:53.435Z,6.22
2023-05-04T18:15:22.184Z,3.72
2023-05-04T18:17:51.179Z,5.68
2023-05-04T18:20:19.872Z,8.07
2023-05-04T18:22:48.569Z,3.72
2023-05-04T18:25:18.824Z,4.05
2023-05-04T18:27:47.457Z,4.05
2023-05-04T18:30:16.514Z,5.45
2023-05-04T18:32:45.214Z,8.35
2023-05-04T18:35:14.038Z,6.37
2023-05-04T18:37:42.568Z,5.50
2023-05-04T18:40:12.202Z,4.47
2023-05-04T18:42:42.205Z,5.30
2023-05-04T18:45:12.256Z,7.27
2023-05-04T18:47:41.085Z,4.75
2023-05-04T18:50:10.784Z,6.50
2023-05-04T18:52:39.365Z,5.63
2023-05-04T18:55:08.736Z,3.60
2023-05-04T18:57:38.024Z,5.80
2023-05-04T19:00:10.302Z,5.40
2023-05-04T19:02:39.100Z,4.80
2023-05-04T19:05:07.972Z,7.87
2023-05-04T19:07:41.744Z,9.10
2023-05-04T19:10:11.978Z,30.80
2023-05-04T19:12:40.801Z,34.70
2023-05-04T19:15:11.475Z,24.60
2023-05-04T19:17:40.281Z,21.17
2023-05-04T19:20:10.527Z,38.53
2023-05-04T19:22:39.496Z,33.40
2023-05-04T19:25:10.168Z,14.60
2023-05-04T19:27:39.701Z,12.45
2023-05-04T19:30:14.603Z,11.07
2023-05-04T19:32:43.305Z,92.73
2023-05-04T19:35:11.957Z,60.47
2023-05-04T19:37:40.497Z,32.07
2023-05-04T19:40:10.184Z,18.83
2023-05-04T19:42:40.017Z,10.50
2023-05-04T19:45:10.134Z,13.07
2023-05-04T19:47:40.542Z,11.53
2023-05-04T19:50:14.292Z,7.43
2023-05-04T19:52:42.844Z,6.93
2023-05-04T19:55:11.822Z,9.20
2023-05-04T19:57:40.445Z,13.87
2023-05-04T20:00:10.865Z,8.43
2023-05-04T20:02:41.310Z,8.23
2023-05-04T20:05:10.232Z,11.93
2023-05-04T20:07:38.775Z,5.73
2023-05-04T20:10:08.517Z,6.90
2023-05-04T20:12:37.410Z,18.33
2023-05-04T20:15:07.082Z,11.63
2023-05-04T20:17:35.747Z,17.93
2023-05-04T20:20:06.951Z,12.03
2023-05-04T20:22:35.999Z,9.40
2023-05-04T20:25:04.841Z,9.23
2023-05-04T20:27:33.335Z,7.50
2023-05-04T20:30:01.977Z,7.63
2023-05-04T20:32:31.600Z,10.57
2023-05-04T20:35:00.248Z,6.37
2023-05-04T20:37:30.293Z,9.10
2023-05-04T20:39:58.834Z,7.93
2023-05-04T20:42:27.411Z,8.73
2023-05-04T20:44:56.043Z,9.90
2023-05-04T20:47:24.666Z,9.43
2023-05-04T20:49:53.164Z,11.83
2023-05-04T20:52:21.780Z,11.90
2023-05-04T20:54:51.897Z,10.57
2023-05-04T20:57:20.485Z,6.83
2023-05-04T20:59:48.966Z,11.53
2023-05-04T21:02:17.512Z,8.00
2023-05-04T21:04:49.114Z,11.30
2023-05-04T21:07:17.596Z,12.83
2023-05-04T21:09:46.205Z,10.93
2023-05-04T21:12:16.595Z,14.80
2023-05-04T21:14:45.135Z,12.03
2023-05-04T21:17:13.812Z,18.00
2023-05-04T21:19:42.403Z,9.90
2023-05-04T21:22:10.951Z,10.50
2023-05-04T21:24:39.563Z,13.87
2023-05-04T21:27:08.286Z,10.37
2023-05-04T21:29:39.355Z,12.17
2023-05-04T21:32:07.906Z,13.80
2023-05-04T21:34:36.492Z,10.37
2023-05-04T21:37:05.403Z,9.87
2023-05-04T21:39:34.060Z,9.60
2023-05-04T21:42:03.380Z,12.23
2023-05-04T21:44:31.962Z,13.47
2023-05-04T21:47:02.430Z,11.17
2023-05-04T21:49:31.166Z,9.57
2023-05-04T21:51:59.827Z,15.50
2023-05-04T21:54:28.534Z,16.43
2023-05-04T21:56:57.085Z,12.97
2023-05-04T21:59:25.756Z,11.80
2023-05-04T22:01:54.378Z,9.93
2023-05-04T22:04:24.743Z,12.13
2023-05-04T22:06:53.352Z,11.80
2023-05-04T22:09:22.094Z,10.33
2023-05-04T22:11:51.883Z,13.37
2023-05-04T22:14:20.461Z,10.40
2023-05-04T22:16:49.414Z,14.63
2023-05-04T22:19:18.158Z,14.03
2023-05-04T22:21:48.520Z,11.13
2023-05-04T22:24:17.672Z,15.03
2023-05-04T22:26:46.576Z,13.03
2023-05-04T22:29:15.257Z,12.97
2023-05-04T22:31:43.845Z,11.10
2023-05-04T22:34:12.359Z,15.20
2023-05-04T22:36:41.077Z,19.80
2023-05-04T22:39:11.146Z,20.23
2023-05-04T22:41:39.686Z,12.07
2023-05-04T22:44:08.888Z,13.20
2023-05-04T22:46:37.534Z,16.90
2023-05-04T22:49:06.156Z,21.67
2023-05-04T22:51:34.693Z,14.73
2023-05-04T22:54:03.261Z,14.07
2023-05-04T22:56:34.252Z,12.97
2023-05-04T22:59:02.997Z,14.13
2023-05-04T23:01:32.703Z,13.17
2023-05-04T23:04:01.572Z,13.97
2023-05-04T23:06:30.113Z,10.93
2023-05-04T23:08:58.655Z,10.17
2023-05-04T23:11:27.208Z,12.50
2023-05-04T23:13:57.164Z,11.33
2023-05-04T23:16:25.697Z,11.40
2023-05-04T23:18:54.325Z,11.53
2023-05-04T23:21:22.989Z,12.50
2023-05-04T23:23:52.814Z,9.97
2023-05-04T23:26:21.579Z,11.67
2023-05-04T23:28:50.128Z,13.87
2023-05-04T23:31:20.715Z,11.47
2023-05-04T23:33:49.228Z,8.93
2023-05-04T23:36:17.826Z,15.80
2023-05-04T23:38:46.403Z,13.63
2023-05-04T23:41:14.929Z,9.93
2023-05-04T23:43:43.542Z,13.03
2023-05-04T23:46:12.230Z,11.67
2023-05-04T23:48:42.167Z,11.00
2023-05-04T23:51:10.732Z,11.33
2023-05-04T23:53:39.342Z,11.17
2023-05-04T23:56:08.691Z,12.63
2023-05-04T23:58:37.491Z,13.93
